Union, Nebraska
Current Conditions -  °F | °C
As of 7:35 PM on Saturday 25 Oct 2014 (Local Time) from KPMV Reporting Station
Clear Clear  
Wind Chill: 64°   Ceiling: Unl
Heat Index: 64°   Visibility: 10mi
Dew Point: 39°   Wind: 5mph
Humidity: 39%   Direction: 70°ENE
Pressure: 30.03"   Gusts: NA
Location:  40.81°N, 95.92°W
Report Text: KPMV 260035Z AUTO 07004KT 10SM CLR 18/04 A3003 RMK AO2 T01800038
Loading
Personal Weather Stations






























Interactive Weather Map
Tropical Storm Tracking
New forecast layout! Learn more

10-Day Weather Forecast

Advertisements
Track Severe Weather on mobile